Time;durP1;ratioP1;P1;durP2;ratioP2;P2;SDS_P1;SDS_P2;PMS_P1;PMS_P2;Temp;Humidity;BMP_temperature;BMP_pressure;BME280_temperature;BME280_humidity;BME280_pressure;Samples;Min_cycle;Max_cycle;Signal;HPM_P1;HPM_P2
2021/10/29 00:01:00;;;;;;;;;;;8.00;99.90;;;;;;5049770;28;19920;-65
2021/10/29 00:03:26;;;;;;;;;;;8.00;99.90;;;;;;5015970;28;19921;-64
2021/10/29 00:05:51;;;;;;;;;;;8.00;99.90;;;;;;5026084;28;20631;-64
2021/10/29 00:08:17;;;;;;;;;;;8.10;99.90;;;;;;5048587;28;19960;-65
2021/10/29 00:10:42;;;;;;;;;;;8.00;99.90;;;;;;5035360;28;19932;-64
2021/10/29 00:13:08;;;;;;;;;;;8.10;99.90;;;;;;5038008;28;19920;-64
2021/10/29 00:15:33;;;;;;;;;;;8.00;99.90;;;;;;5033618;28;19924;-65
2021/10/29 00:17:59;;;;;;;;;;;8.10;99.90;;;;;;5033363;28;20359;-64
2021/10/29 00:20:25;;;;;;;;;;;8.10;99.90;;;;;;5048299;28;20329;-64
2021/10/29 00:22:50;;;;;;;;;;;8.10;99.90;;;;;;5032185;28;20416;-64
2021/10/29 00:25:16;;;;;;;;;;;8.00;99.90;;;;;;5050120;28;19964;-65
2021/10/29 00:27:42;;;;;;;;;;;8.10;99.90;;;;;;5045422;28;20004;-64
2021/10/29 00:30:08;;;;;;;;;;;8.10;99.90;;;;;;5045624;28;19966;-65
2021/10/29 00:32:33;;;;;;;;;;;8.10;99.90;;;;;;5049719;28;19916;-64
2021/10/29 00:34:59;;;;;;;;;;;8.10;99.90;;;;;;5015453;28;19960;-65
2021/10/29 00:37:24;;;;;;;;;;;8.10;99.90;;;;;;5032732;28;19932;-64
2021/10/29 00:39:50;;;;;;;;;;;8.10;99.90;;;;;;5046210;28;19943;-64
2021/10/29 00:42:15;;;;;;;;;;;8.10;99.90;;;;;;5051723;28;19928;-64
2021/10/29 00:44:41;;;;;;;;;;;8.10;99.90;;;;;;5031396;28;19925;-65
2021/10/29 00:47:06;;;;;;;;;;;8.10;99.90;;;;;;5046395;28;19916;-65
2021/10/29 00:49:32;;;;;;;;;;;8.10;99.90;;;;;;5050181;28;20011;-65
2021/10/29 00:51:58;;;;;;;;;;;8.10;99.90;;;;;;5033593;28;19917;-65
2021/10/29 00:54:23;;;;;;;;;;;8.10;99.90;;;;;;5033482;28;19916;-64
2021/10/29 00:56:49;;;;;;;;;;;8.10;99.90;;;;;;5051560;28;20398;-65
2021/10/29 00:59:17;;;;;;;;;;;8.10;99.90;;;;;;5033342;28;19920;-64
2021/10/29 01:01:43;;;;;;;;;;;8.10;99.90;;;;;;5031204;28;19956;-65
2021/10/29 01:04:09;;;;;;;;;;;8.20;99.90;;;;;;5031811;28;20278;-64
2021/10/29 01:06:34;;;;;;;;;;;8.10;99.90;;;;;;5048520;28;20001;-65
2021/10/29 01:09:00;;;;;;;;;;;8.10;99.90;;;;;;5041330;28;19924;-64
2021/10/29 01:11:26;;;;;;;;;;;8.20;99.90;;;;;;5032853;28;19977;-64
2021/10/29 01:13:52;;;;;;;;;;;8.10;99.90;;;;;;5051612;28;19924;-64
2021/10/29 01:16:19;;;;;;;;;;;8.10;99.90;;;;;;5036680;28;20665;-64
2021/10/29 01:18:44;;;;;;;;;;;8.20;99.90;;;;;;5048237;28;19927;-65
2021/10/29 01:21:10;;;;;;;;;;;8.10;99.90;;;;;;5039064;28;20418;-64
2021/10/29 01:23:36;;;;;;;;;;;8.20;99.90;;;;;;5015387;28;20439;-64
2021/10/29 01:26:06;;;;;;;;;;;8.20;99.90;;;;;;5051643;28;19924;-65
2021/10/29 01:28:32;;;;;;;;;;;8.20;99.90;;;;;;5040626;28;19990;-64
2021/10/29 01:30:57;;;;;;;;;;;8.20;99.90;;;;;;5037320;28;19963;-65
2021/10/29 01:33:23;;;;;;;;;;;8.30;99.90;;;;;;5054583;28;20366;-64
2021/10/29 01:35:49;;;;;;;;;;;8.30;99.90;;;;;;5029215;28;20342;-65
2021/10/29 01:38:15;;;;;;;;;;;8.20;99.90;;;;;;5050394;28;20297;-64
2021/10/29 01:40:40;;;;;;;;;;;8.30;99.90;;;;;;5032578;28;19917;-64
2021/10/29 01:43:06;;;;;;;;;;;8.20;99.90;;;;;;5053394;28;20350;-64
2021/10/29 01:45:32;;;;;;;;;;;8.20;99.90;;;;;;5053925;28;19936;-64
2021/10/29 01:47:58;;;;;;;;;;;8.20;99.90;;;;;;5035593;28;20338;-65
2021/10/29 01:50:23;;;;;;;;;;;8.20;99.90;;;;;;5013973;28;19960;-65
2021/10/29 01:52:49;;;;;;;;;;;8.20;99.90;;;;;;5045232;28;20024;-64
2021/10/29 01:55:15;;;;;;;;;;;8.20;99.90;;;;;;5051843;28;19942;-65
2021/10/29 01:57:41;;;;;;;;;;;8.20;99.90;;;;;;5052978;28;20388;-64
2021/10/29 02:00:06;;;;;;;;;;;8.10;99.90;;;;;;5009254;28;19917;-65
2021/10/29 02:02:32;;;;;;;;;;;8.20;99.90;;;;;;5028591;28;20279;-65
2021/10/29 02:04:57;;;;;;;;;;;8.10;99.90;;;;;;5039613;28;19925;-65
2021/10/29 02:07:23;;;;;;;;;;;8.10;99.90;;;;;;5035243;28;19935;-65
2021/10/29 02:09:48;;;;;;;;;;;8.10;99.90;;;;;;5049493;28;20027;-65
2021/10/29 02:12:14;;;;;;;;;;;8.00;99.90;;;;;;5029625;28;19917;-64
2021/10/29 02:14:39;;;;;;;;;;;8.00;99.90;;;;;;5051101;28;19920;-65
2021/10/29 02:17:05;;;;;;;;;;;8.00;99.90;;;;;;5042577;28;19917;-64
2021/10/29 02:19:30;;;;;;;;;;;8.00;99.90;;;;;;5051180;28;19931;-65
2021/10/29 02:21:56;;;;;;;;;;;7.90;99.90;;;;;;5035708;28;19921;-65
2021/10/29 02:24:21;;;;;;;;;;;7.90;99.90;;;;;;5043769;28;19936;-64
2021/10/29 02:26:47;;;;;;;;;;;7.90;99.90;;;;;;5040902;28;19927;-64
2021/10/29 02:29:12;;;;;;;;;;;7.90;99.90;;;;;;5048874;28;20473;-65
2021/10/29 02:31:40;;;;;;;;;;;7.90;99.90;;;;;;5033158;28;19965;-65
2021/10/29 02:34:06;;;;;;;;;;;7.90;99.90;;;;;;5051368;28;19955;-65
2021/10/29 02:36:31;;;;;;;;;;;7.90;99.90;;;;;;5048151;28;20390;-65
2021/10/29 02:38:58;;;;;;;;;;;7.90;99.90;;;;;;5051485;28;19925;-64
2021/10/29 02:41:24;;;;;;;;;;;7.90;99.90;;;;;;5042986;28;19928;-65
2021/10/29 02:43:49;;;;;;;;;;;7.80;99.90;;;;;;5036493;28;20351;-65
2021/10/29 02:46:15;;;;;;;;;;;7.80;99.90;;;;;;5049645;28;19917;-65
2021/10/29 02:48:41;;;;;;;;;;;7.80;99.90;;;;;;5036889;28;19944;-65
2021/10/29 02:51:07;;;;;;;;;;;7.80;99.90;;;;;;5051050;28;19924;-65
2021/10/29 02:53:34;;;;;;;;;;;7.80;99.90;;;;;;5051255;28;19927;-65
2021/10/29 02:56:00;;;;;;;;;;;7.80;99.90;;;;;;5028241;28;19941;-64
2021/10/29 02:58:28;;;;;;;;;;;7.80;99.90;;;;;;5047236;28;20010;-65
2021/10/29 03:00:53;;;;;;;;;;;7.70;99.90;;;;;;5031701;28;19916;-65
2021/10/29 03:03:19;;;;;;;;;;;7.70;99.90;;;;;;5051115;28;20321;-65
2021/10/29 03:05:45;;;;;;;;;;;7.70;99.90;;;;;;5038651;28;20299;-65
2021/10/29 03:08:10;;;;;;;;;;;7.60;99.90;;;;;;5037248;28;20393;-65
2021/10/29 03:10:37;;;;;;;;;;;7.70;99.90;;;;;;5050126;28;20014;-64
2021/10/29 03:13:02;;;;;;;;;;;7.60;99.90;;;;;;5048438;28;19983;-64
2021/10/29 03:15:28;;;;;;;;;;;7.60;99.90;;;;;;5050358;28;20428;-64
2021/10/29 03:17:54;;;;;;;;;;;7.60;99.90;;;;;;5016985;28;19920;-64
2021/10/29 03:20:19;;;;;;;;;;;7.60;99.90;;;;;;5051822;28;20051;-64
2021/10/29 03:22:45;;;;;;;;;;;7.50;99.90;;;;;;5042415;23;19928;-65
2021/10/29 03:25:10;;;;;;;;;;;7.50;99.90;;;;;;5023878;28;19928;-65
2021/10/29 03:27:36;;;;;;;;;;;7.50;99.90;;;;;;5032234;28;19952;-66
2021/10/29 03:30:02;;;;;;;;;;;7.50;99.90;;;;;;5030941;28;20351;-65
2021/10/29 03:32:28;;;;;;;;;;;7.40;99.90;;;;;;5032383;28;20010;-65
2021/10/29 03:34:53;;;;;;;;;;;7.50;99.90;;;;;;5031870;28;19960;-65
2021/10/29 03:37:53;;;;;;;;;;;7.40;99.90;;;;;;5030918;28;19917;-65
2021/10/29 03:40:17;;;;;;;;;;;7.40;99.90;;;;;;5031582;28;20301;-65
2021/10/29 03:45:24;;;;;;;;;;;7.30;99.90;;;;;;5032065;28;19958;-65
2021/10/29 03:47:55;;;;;;;;;;;7.40;99.90;;;;;;5028471;28;19932;-65
2021/10/29 03:50:33;;;;;;;;;;;7.20;99.90;;;;;;5028700;28;19921;-65
2021/10/29 03:53:05;;;;;;;;;;;7.40;99.90;;;;;;5027044;28;19921;-65
2021/10/29 03:55:38;;;;;;;;;;;7.30;99.90;;;;;;5029749;28;19924;-65
2021/10/29 03:58:04;;;;;;;;;;;7.30;99.90;;;;;;5029233;28;19921;-65
2021/10/29 04:00:29;;;;;;;;;;;7.30;99.90;;;;;;5021519;28;20432;-65
2021/10/29 04:03:00;;;;;;;;;;;7.40;99.90;;;;;;5013895;28;20318;-65
2021/10/29 04:05:26;;;;;;;;;;;7.40;99.90;;;;;;5032150;28;20000;-65
2021/10/29 04:07:52;;;;;;;;;;;7.40;99.90;;;;;;5031218;28;19917;-65
2021/10/29 04:10:17;;;;;;;;;;;7.50;99.90;;;;;;5016864;28;19917;-65
2021/10/29 04:12:43;;;;;;;;;;;7.50;99.90;;;;;;5014308;28;20391;-65
2021/10/29 04:15:09;;;;;;;;;;;7.50;99.90;;;;;;5032973;28;19917;-65
2021/10/29 04:17:34;;;;;;;;;;;7.50;99.90;;;;;;5032954;28;20418;-65
2021/10/29 04:20:00;;;;;;;;;;;7.50;99.90;;;;;;5032737;28;19928;-65
2021/10/29 04:22:25;;;;;;;;;;;7.50;99.90;;;;;;5039336;28;20016;-65
2021/10/29 04:24:51;;;;;;;;;;;7.40;99.90;;;;;;5042883;28;19920;-65
2021/10/29 04:27:22;;;;;;;;;;;7.40;99.90;;;;;;5021920;28;20007;-70
2021/10/29 04:29:50;;;;;;;;;;;7.40;99.90;;;;;;5033353;28;19916;-65
2021/10/29 04:32:15;;;;;;;;;;;7.40;99.90;;;;;;5032561;28;19928;-65
2021/10/29 04:34:41;;;;;;;;;;;7.40;99.90;;;;;;5033277;28;19917;-65
2021/10/29 04:37:06;;;;;;;;;;;7.40;99.90;;;;;;5033229;28;20003;-65
2021/10/29 04:39:32;;;;;;;;;;;7.40;99.90;;;;;;5051306;28;19924;-65
2021/10/29 04:41:57;;;;;;;;;;;7.40;99.90;;;;;;5051509;28;20053;-65
2021/10/29 04:44:23;;;;;;;;;;;7.40;99.90;;;;;;5039577;28;19929;-65
2021/10/29 04:46:49;;;;;;;;;;;7.30;99.90;;;;;;5033215;28;20322;-65
2021/10/29 04:49:15;;;;;;;;;;;7.30;99.90;;;;;;5032694;28;19917;-65
2021/10/29 04:51:40;;;;;;;;;;;7.30;99.90;;;;;;5051130;28;19924;-65
2021/10/29 04:54:06;;;;;;;;;;;7.30;99.90;;;;;;5051446;28;19973;-65
2021/10/29 04:56:31;;;;;;;;;;;7.30;99.90;;;;;;5051130;28;20579;-65
2021/10/29 04:58:57;;;;;;;;;;;7.40;99.90;;;;;;5051037;28;19925;-65
2021/10/29 05:01:22;;;;;;;;;;;7.30;99.90;;;;;;5011481;28;20382;-65
2021/10/29 05:03:47;;;;;;;;;;;7.30;99.90;;;;;;5032809;28;19932;-65
2021/10/29 05:06:13;;;;;;;;;;;7.30;99.90;;;;;;5032829;28;19940;-65
2021/10/29 05:08:39;;;;;;;;;;;7.30;99.90;;;;;;5050673;28;19917;-65
2021/10/29 05:11:05;;;;;;;;;;;7.30;99.90;;;;;;5051174;28;19916;-65
2021/10/29 05:13:31;;;;;;;;;;;7.30;99.90;;;;;;5049346;28;20671;-65
2021/10/29 05:15:56;;;;;;;;;;;7.30;99.90;;;;;;5047100;28;19924;-65
2021/10/29 05:18:22;;;;;;;;;;;7.30;99.90;;;;;;5026748;28;20541;-65
2021/10/29 05:20:48;;;;;;;;;;;7.40;99.90;;;;;;5044050;28;19920;-65
2021/10/29 05:23:14;;;;;;;;;;;7.30;99.90;;;;;;5013473;28;1023688;-65
2021/10/29 05:25:39;;;;;;;;;;;7.30;99.90;;;;;;5024344;28;20035;-66
2021/10/29 05:28:05;;;;;;;;;;;7.30;99.90;;;;;;5044743;28;19921;-65
2021/10/29 05:30:31;;;;;;;;;;;7.40;99.90;;;;;;5045905;28;19921;-65
2021/10/29 05:32:56;;;;;;;;;;;7.30;99.90;;;;;;5034938;28;19925;-65
2021/10/29 05:35:22;;;;;;;;;;;7.30;99.90;;;;;;5050269;28;19917;-65
2021/10/29 05:37:47;;;;;;;;;;;7.30;99.90;;;;;;5047792;28;19916;-65
2021/10/29 05:40:13;;;;;;;;;;;7.30;99.90;;;;;;5037788;28;19920;-65
2021/10/29 05:42:39;;;;;;;;;;;7.30;99.90;;;;;;5044216;28;20362;-65
2021/10/29 05:45:05;;;;;;;;;;;7.30;99.90;;;;;;5048213;28;19925;-65
2021/10/29 05:47:31;;;;;;;;;;;7.30;99.90;;;;;;5032673;28;19916;-65
2021/10/29 05:49:58;;;;;;;;;;;7.30;99.90;;;;;;5015206;28;19921;-65
2021/10/29 05:52:26;;;;;;;;;;;7.30;99.90;;;;;;5040629;28;19928;-65
2021/10/29 05:57:17;;;;;;;;;;;7.30;99.90;;;;;;5033846;28;20046;-65
2021/10/29 05:59:42;;;;;;;;;;;7.30;99.90;;;;;;5032460;28;20472;-65
2021/10/29 06:02:08;;;;;;;;;;;7.30;99.90;;;;;;5031505;28;20302;-65
2021/10/29 06:04:33;;;;;;;;;;;7.30;99.90;;;;;;5030772;28;20027;-65
2021/10/29 06:06:59;;;;;;;;;;;7.30;99.90;;;;;;5050471;28;19920;-65
2021/10/29 06:09:25;;;;;;;;;;;7.30;99.90;;;;;;5027238;28;20263;-65
2021/10/29 06:11:51;;;;;;;;;;;7.20;99.90;;;;;;5039457;28;19920;-66
2021/10/29 06:14:17;;;;;;;;;;;7.20;99.90;;;;;;5021016;28;19927;-65
2021/10/29 06:16:43;;;;;;;;;;;7.20;99.90;;;;;;5036341;28;19916;-65
2021/10/29 06:19:08;;;;;;;;;;;7.10;99.90;;;;;;5053445;28;19943;-65
2021/10/29 06:24:23;;;;;;;;;;;7.10;99.90;;;;;;5036802;28;20590;-65
2021/10/29 06:26:59;;;;;;;;;;;7.20;99.90;;;;;;5045880;28;19924;-65
2021/10/29 06:29:25;;;;;;;;;;;7.10;99.90;;;;;;5044563;28;20716;-65
2021/10/29 06:31:50;;;;;;;;;;;7.10;99.90;;;;;;5052760;28;19920;-65
2021/10/29 06:34:16;;;;;;;;;;;7.20;99.90;;;;;;5036485;28;19923;-65
2021/10/29 06:36:41;;;;;;;;;;;7.20;99.90;;;;;;5053925;28;19967;-65
2021/10/29 06:39:08;;;;;;;;;;;7.20;99.90;;;;;;5036742;28;19999;-65
2021/10/29 06:41:33;;;;;;;;;;;7.20;99.90;;;;;;5048762;28;19917;-65
2021/10/29 06:46:46;;;;;;;;;;;7.30;99.90;;;;;;5051632;28;19920;-65
2021/10/29 07:05:02;;;;;;;;;;;7.60;99.90;;;;;;5053512;28;20004;-65
2021/10/29 07:42:30;;;;;;;;;;;8.70;99.90;;;;;;5052843;28;19917;-66
2021/10/29 07:44:55;;;;;;;;;;;8.80;99.90;;;;;;5033674;28;20000;-66
2021/10/29 07:47:21;;;;;;;;;;;8.90;99.90;;;;;;5048533;28;20327;-66
2021/10/29 07:49:46;;;;;;;;;;;9.00;99.90;;;;;;5048943;28;19924;-66
2021/10/29 07:52:12;;;;;;;;;;;9.10;99.90;;;;;;5015501;28;19917;-66
2021/10/29 07:54:44;;;;;;;;;;;9.20;99.90;;;;;;5015960;28;20354;-66
2021/10/29 07:57:09;;;;;;;;;;;9.30;99.90;;;;;;5035181;28;19947;-66
2021/10/29 07:59:35;;;;;;;;;;;9.40;99.90;;;;;;5052065;28;20404;-66
2021/10/29 08:02:00;;;;;;;;;;;9.50;99.90;;;;;;5035295;28;20007;-66
2021/10/29 08:04:26;;;;;;;;;;;9.60;99.90;;;;;;5035122;28;19927;-66
2021/10/29 08:06:52;;;;;;;;;;;9.70;99.90;;;;;;5052808;28;19921;-66
2021/10/29 08:09:19;;;;;;;;;;;9.80;99.90;;;;;;5052869;28;19917;-66
2021/10/29 08:11:44;;;;;;;;;;;9.80;99.90;;;;;;5035100;28;20518;-66
2021/10/29 08:14:10;;;;;;;;;;;10.00;99.90;;;;;;5051737;28;19917;-67
2021/10/29 08:16:35;;;;;;;;;;;10.10;99.90;;;;;;5034680;28;20471;-66
2021/10/29 08:19:02;;;;;;;;;;;10.20;99.90;;;;;;5034784;28;19917;-66
2021/10/29 08:21:27;;;;;;;;;;;10.20;99.90;;;;;;5034894;28;19917;-66
2021/10/29 08:23:53;;;;;;;;;;;10.40;99.90;;;;;;5034176;28;19977;-66
2021/10/29 08:26:18;;;;;;;;;;;10.40;99.90;;;;;;5018288;28;19921;-66
2021/10/29 08:28:44;;;;;;;;;;;10.50;99.90;;;;;;5026123;28;19983;-66
2021/10/29 08:31:09;;;;;;;;;;;10.50;99.90;;;;;;5022287;28;19917;-67
2021/10/29 08:33:35;;;;;;;;;;;10.70;99.90;;;;;;5034485;28;19940;-67
2021/10/29 08:36:01;;;;;;;;;;;10.80;99.90;;;;;;5052660;28;20363;-67
2021/10/29 08:38:27;;;;;;;;;;;10.80;99.90;;;;;;5052388;28;20604;-67
2021/10/29 08:40:53;;;;;;;;;;;10.90;99.90;;;;;;5018014;28;19917;-67
2021/10/29 08:43:19;;;;;;;;;;;10.90;99.90;;;;;;5052336;28;19920;-67
2021/10/29 08:45:45;;;;;;;;;;;11.00;99.90;;;;;;5017141;28;19927;-67
2021/10/29 08:48:11;;;;;;;;;;;11.10;99.90;;;;;;5017975;28;20007;-67
2021/10/29 08:50:37;;;;;;;;;;;11.10;99.90;;;;;;5052395;28;19916;-67
2021/10/29 08:53:02;;;;;;;;;;;11.20;99.90;;;;;;5034310;28;19924;-67
2021/10/29 08:55:30;;;;;;;;;;;11.30;99.90;;;;;;5052227;28;19917;-67
2021/10/29 08:57:56;;;;;;;;;;;11.30;99.90;;;;;;5051469;28;20406;-67
2021/10/29 09:00:25;;;;;;;;;;;11.40;99.90;;;;;;5034494;28;20476;-67
2021/10/29 09:02:59;;;;;;;;;;;11.40;99.90;;;;;;5051244;28;19916;-67
2021/10/29 09:05:31;;;;;;;;;;;11.50;99.90;;;;;;5034160;28;19921;-67
2021/10/29 09:08:30;;;;;;;;;;;11.50;99.90;;;;;;5017147;28;19955;-67
2021/10/29 09:16:45;;;;;;;;;;;11.60;99.90;;;;;;5051377;28;19920;-67
2021/10/29 09:32:57;;;;;;;;;;;11.90;99.90;;;;;;5042541;28;19925;-67
2021/10/29 09:35:24;;;;;;;;;;;12.00;99.90;;;;;;5051694;28;19917;-67
2021/10/29 09:37:59;;;;;;;;;;;12.00;99.90;;;;;;5050823;28;19997;-67
2021/10/29 09:40:25;;;;;;;;;;;12.00;99.90;;;;;;5051019;28;19935;-67
2021/10/29 09:42:53;;;;;;;;;;;12.00;99.90;;;;;;5033859;28;19917;-67
2021/10/29 09:45:20;;;;;;;;;;;12.10;99.90;;;;;;5051607;28;19943;-67
2021/10/29 09:47:53;;;;;;;;;;;12.30;99.90;;;;;;5037812;28;19967;-67
2021/10/29 09:50:26;;;;;;;;;;;12.40;99.90;;;;;;5021370;28;19936;-67
2021/10/29 09:53:08;;;;;;;;;;;12.50;99.90;;;;;;5017957;28;20273;-67
2021/10/29 09:55:51;;;;;;;;;;;12.60;99.90;;;;;;5035660;28;19956;-67
2021/10/29 09:58:18;;;;;;;;;;;12.60;99.90;;;;;;5017303;28;19975;-67
2021/10/29 10:00:43;;;;;;;;;;;12.80;99.90;;;;;;5016966;28;20358;-67
2021/10/29 10:03:09;;;;;;;;;;;12.80;99.90;;;;;;5017427;28;19924;-67
2021/10/29 10:05:36;;;;;;;;;;;12.90;99.90;;;;;;5028753;28;19920;-67
2021/10/29 10:08:02;;;;;;;;;;;13.00;99.90;;;;;;5017493;28;19921;-67
2021/10/29 10:10:29;;;;;;;;;;;13.00;99.90;;;;;;5019527;28;20004;-67
2021/10/29 10:12:57;;;;;;;;;;;13.00;99.90;;;;;;5052309;28;19925;-67
2021/10/29 10:15:22;;;;;;;;;;;13.00;99.90;;;;;;5037116;28;19928;-67
2021/10/29 10:17:49;;;;;;;;;;;13.00;99.90;;;;;;5036924;28;19917;-67
2021/10/29 10:20:15;;;;;;;;;;;13.00;99.90;;;;;;5036753;28;19962;-67
2021/10/29 10:22:42;;;;;;;;;;;13.00;99.90;;;;;;5054000;28;19968;-67
2021/10/29 10:28:21;;;;;;;;;;;13.20;99.90;;;;;;5013219;28;20435;-67
2021/10/29 10:46:58;;;;;;;;;;;14.10;99.90;;;;;;5036642;28;19921;-67
2021/10/29 10:49:35;;;;;;;;;;;14.10;99.90;;;;;;5036836;28;19933;-67
2021/10/29 10:52:12;;;;;;;;;;;14.20;99.90;;;;;;5054830;28;20047;-67
2021/10/29 10:54:52;;;;;;;;;;;14.30;99.90;;;;;;5035791;28;20404;-67
2021/10/29 10:57:31;;;;;;;;;;;14.30;99.90;;;;;;5054261;28;19916;-69
2021/10/29 11:00:24;;;;;;;;;;;14.30;99.90;;;;;;5036016;28;19920;-67
2021/10/29 11:03:29;;;;;;;;;;;14.30;99.90;;;;;;5054381;28;19916;-67
2021/10/29 11:10:58;;;;;;;;;;;14.30;99.90;;;;;;5034339;28;19967;-67
2021/10/29 11:13:46;;;;;;;;;;;14.40;99.90;;;;;;5018114;28;19921;-67
2021/10/29 11:16:16;;;;;;;;;;;14.40;99.90;;;;;;5033863;28;20510;-67
2021/10/29 11:19:22;;;;;;;;;;;14.50;99.90;;;;;;5034035;28;20244;-67
2021/10/29 11:21:48;;;;;;;;;;;14.60;99.90;;;;;;5005734;28;20096;-66
2021/10/29 11:24:15;;;;;;;;;;;14.60;99.90;;;;;;5033699;28;20354;-66
2021/10/29 11:26:47;;;;;;;;;;;14.60;99.90;;;;;;4999915;28;19944;-66
2021/10/29 11:29:13;;;;;;;;;;;14.70;99.90;;;;;;5016586;28;20341;-66
2021/10/29 11:31:44;;;;;;;;;;;14.70;99.90;;;;;;5025276;28;19917;-66
2021/10/29 11:34:16;;;;;;;;;;;14.80;99.90;;;;;;5050416;28;20497;-66
2021/10/29 11:36:51;;;;;;;;;;;14.90;99.90;;;;;;5036045;28;19916;-66
2021/10/29 11:39:18;;;;;;;;;;;14.90;99.90;;;;;;5019023;28;19920;-66
2021/10/29 11:41:44;;;;;;;;;;;14.90;99.90;;;;;;5035324;28;19916;-66
2021/10/29 11:44:13;;;;;;;;;;;14.90;99.90;;;;;;5053696;28;19921;-66
2021/10/29 11:46:39;;;;;;;;;;;14.90;99.90;;;;;;5052468;28;19995;-66
2021/10/29 11:49:06;;;;;;;;;;;15.00;99.90;;;;;;5035150;28;20021;-66
2021/10/29 11:51:32;;;;;;;;;;;15.00;99.90;;;;;;5035478;28;19916;-66
2021/10/29 11:54:03;;;;;;;;;;;15.10;99.90;;;;;;5035390;28;20294;-66
2021/10/29 11:59:11;;;;;;;;;;;15.10;99.90;;;;;;5034950;28;20550;-65
2021/10/29 12:07:19;;;;;;;;;;;15.40;99.90;;;;;;5033243;28;19917;-66
2021/10/29 12:09:45;;;;;;;;;;;15.50;99.90;;;;;;5031272;28;19917;-66
2021/10/29 12:12:12;;;;;;;;;;;15.50;99.90;;;;;;5015112;28;19967;-66
2021/10/29 12:14:39;;;;;;;;;;;15.50;99.90;;;;;;5001949;28;19924;-67
2021/10/29 12:17:06;;;;;;;;;;;15.70;99.90;;;;;;5027002;28;19974;-66
2021/10/29 12:19:34;;;;;;;;;;;15.80;99.90;;;;;;5034874;28;19970;-66
2021/10/29 12:22:08;;;;;;;;;;;15.90;99.90;;;;;;5032586;28;20884;-66
2021/10/29 12:24:35;;;;;;;;;;;16.00;99.90;;;;;;5052202;28;19993;-66
2021/10/29 12:27:07;;;;;;;;;;;16.20;99.90;;;;;;5049305;28;20009;-65
2021/10/29 12:29:34;;;;;;;;;;;16.30;99.90;;;;;;5052101;28;19939;-66
2021/10/29 12:32:33;;;;;;;;;;;16.30;99.90;;;;;;5048170;28;19916;-66
2021/10/29 13:02:28;;;;;;;;;;;16.40;99.90;;;;;;5044143;28;19981;-66
2021/10/29 13:04:57;;;;;;;;;;;16.30;99.90;;;;;;5048585;28;19916;-66
2021/10/29 13:07:24;;;;;;;;;;;16.30;99.90;;;;;;5062313;28;19921;-66
2021/10/29 13:09:50;;;;;;;;;;;16.40;99.90;;;;;;5054024;28;20307;-66
2021/10/29 13:14:54;;;;;;;;;;;16.40;99.90;;;;;;5068858;28;20036;-66
2021/10/29 13:17:29;;;;;;;;;;;16.50;99.90;;;;;;5053226;28;20014;-66
2021/10/29 13:20:18;;;;;;;;;;;16.50;99.90;;;;;;5049547;28;19924;-66
2021/10/29 13:23:38;;;;;;;;;;;16.60;99.90;;;;;;5052811;28;19931;-66
2021/10/29 14:32:38;;;;;;;;;;;15.60;99.90;;;;;;5051232;28;19921;-66
2021/10/29 14:34:52;;;;;;;;;;;15.60;99.90;;;;;;5042897;28;20026;-66
2021/10/29 14:39:54;;;;;;;;;;;15.70;99.90;;;;;;5049194;28;19971;-66
2021/10/29 14:42:29;;;;;;;;;;;15.70;99.90;;;;;;5046502;28;19966;-66
2021/10/29 14:47:32;;;;;;;;;;;15.70;99.90;;;;;;5071201;28;19931;-66
2021/10/29 15:16:22;;;;;;;;;;;14.90;99.90;;;;;;5053997;28;19917;-66
2021/10/29 15:24:48;;;;;;;;;;;14.70;99.90;;;;;;5045917;28;19920;-66
2021/10/29 15:27:36;;;;;;;;;;;14.60;99.90;;;;;;5051642;28;19921;-66
2021/10/29 15:30:21;;;;;;;;;;;14.50;99.90;;;;;;5049883;28;19995;-66
2021/10/29 15:46:15;;;;;;;;;;;13.80;99.90;;;;;;5052727;28;19970;-66
2021/10/29 15:48:46;;;;;;;;;;;13.70;99.90;;;;;;5031108;28;19920;-66
2021/10/29 15:51:12;;;;;;;;;;;13.70;99.90;;;;;;5044329;28;19947;-66
2021/10/29 15:53:38;;;;;;;;;;;13.50;99.90;;;;;;5060700;28;20007;-66
2021/10/29 15:56:11;;;;;;;;;;;13.40;99.90;;;;;;5047842;28;19948;-66
2021/10/29 16:01:26;;;;;;;;;;;13.30;99.90;;;;;;5039100;28;19933;-66
2021/10/29 16:17:18;;;;;;;;;;;12.90;99.90;;;;;;5053084;28;20352;-66
2021/10/29 16:19:43;;;;;;;;;;;12.90;99.90;;;;;;5041546;28;19927;-66
2021/10/29 16:22:16;;;;;;;;;;;12.80;99.90;;;;;;5054150;28;19917;-66
2021/10/29 16:24:48;;;;;;;;;;;12.80;99.90;;;;;;5049933;28;19923;-66
2021/10/29 16:27:15;;;;;;;;;;;12.70;99.90;;;;;;5048953;28;20309;-66
2021/10/29 16:29:40;;;;;;;;;;;12.70;99.90;;;;;;5031595;28;20434;-66
2021/10/29 16:32:14;;;;;;;;;;;12.60;99.90;;;;;;5054165;28;20024;-66
2021/10/29 16:34:40;;;;;;;;;;;12.60;99.90;;;;;;5048669;28;19923;-66
2021/10/29 16:37:06;;;;;;;;;;;12.60;99.90;;;;;;5053619;28;19916;-66
2021/10/29 16:39:32;;;;;;;;;;;12.50;99.90;;;;;;5044745;28;19967;-66
2021/10/29 16:41:57;;;;;;;;;;;12.50;99.90;;;;;;5066647;28;20306;-66
2021/10/29 16:44:23;;;;;;;;;;;12.50;99.90;;;;;;5066934;28;19966;-66
2021/10/29 16:46:50;;;;;;;;;;;12.50;99.90;;;;;;5064469;28;20020;-66
2021/10/29 16:49:16;;;;;;;;;;;12.60;99.90;;;;;;5043287;28;20273;-66
2021/10/29 16:51:42;;;;;;;;;;;12.50;99.90;;;;;;5047398;28;19995;-66
2021/10/29 16:54:07;;;;;;;;;;;12.50;99.90;;;;;;5029090;28;19948;-65
2021/10/29 16:56:33;;;;;;;;;;;12.50;99.90;;;;;;5062570;28;19921;-66
2021/10/29 16:58:58;;;;;;;;;;;12.50;99.90;;;;;;5070434;28;20471;-66
2021/10/29 17:01:24;;;;;;;;;;;12.50;99.90;;;;;;5047913;28;19917;-66
2021/10/29 17:03:49;;;;;;;;;;;12.50;99.90;;;;;;5052085;28;21289;-66
2021/10/29 17:06:15;;;;;;;;;;;12.50;99.90;;;;;;5069804;28;19947;-66
2021/10/29 17:08:41;;;;;;;;;;;12.50;99.90;;;;;;5059556;28;19923;-66
2021/10/29 17:11:12;;;;;;;;;;;12.50;99.90;;;;;;5026621;28;19921;-66
2021/10/29 17:13:38;;;;;;;;;;;12.50;99.90;;;;;;5036856;28;19931;-66
2021/10/29 17:16:03;;;;;;;;;;;12.50;99.90;;;;;;5037083;28;19920;-66
2021/10/29 17:18:29;;;;;;;;;;;12.50;99.90;;;;;;5052204;28;19920;-66
2021/10/29 17:20:54;;;;;;;;;;;12.60;99.90;;;;;;5053431;28;19921;-66
2021/10/29 17:23:20;;;;;;;;;;;12.60;99.90;;;;;;5052459;28;19959;-66
2021/10/29 17:25:45;;;;;;;;;;;12.70;99.90;;;;;;5045454;28;19920;-66
2021/10/29 17:28:11;;;;;;;;;;;12.70;99.90;;;;;;5052250;28;19920;-66
2021/10/29 17:30:37;;;;;;;;;;;12.80;99.90;;;;;;5062969;28;20385;-66
2021/10/29 17:33:02;;;;;;;;;;;12.80;99.90;;;;;;5063611;28;20392;-66
2021/10/29 17:35:28;;;;;;;;;;;12.80;99.90;;;;;;5063498;28;20007;-66
2021/10/29 17:37:53;;;;;;;;;;;12.90;99.90;;;;;;5051273;28;19920;-66
2021/10/29 17:40:19;;;;;;;;;;;12.90;99.90;;;;;;5050456;28;19957;-66
2021/10/29 17:42:44;;;;;;;;;;;12.90;99.90;;;;;;5065082;28;19916;-66
2021/10/29 17:45:11;;;;;;;;;;;13.00;99.90;;;;;;5055102;28;19924;-67
2021/10/29 17:47:37;;;;;;;;;;;13.00;99.90;;;;;;5064538;28;20527;-67
2021/10/29 17:50:03;;;;;;;;;;;13.00;99.90;;;;;;5050571;28;19966;-67
2021/10/29 17:52:28;;;;;;;;;;;13.00;99.90;;;;;;5037193;28;19969;-67
2021/10/29 17:54:56;;;;;;;;;;;13.00;99.90;;;;;;5050753;28;20007;-67
2021/10/29 17:57:23;;;;;;;;;;;13.00;99.90;;;;;;5054778;28;19940;-67
2021/10/29 17:59:50;;;;;;;;;;;13.00;99.90;;;;;;5066640;28;19920;-67
2021/10/29 18:02:25;;;;;;;;;;;12.90;99.90;;;;;;5046770;28;19920;-67
2021/10/29 18:04:52;;;;;;;;;;;12.90;99.90;;;;;;5034562;28;19927;-67
2021/10/29 18:07:20;;;;;;;;;;;12.90;99.90;;;;;;5054674;28;20423;-67
2021/10/29 18:09:45;;;;;;;;;;;12.90;99.90;;;;;;5039560;28;20393;-67
2021/10/29 18:12:11;;;;;;;;;;;13.00;99.90;;;;;;5063067;28;19932;-67
2021/10/29 18:14:40;;;;;;;;;;;13.00;99.90;;;;;;5039035;28;19920;-67
2021/10/29 18:17:05;;;;;;;;;;;13.10;99.90;;;;;;5053755;28;19920;-67
2021/10/29 18:19:31;;;;;;;;;;;13.10;99.90;;;;;;5072622;28;19920;-67
2021/10/29 18:21:56;;;;;;;;;;;13.10;99.90;;;;;;5071245;28;19930;-67
2021/10/29 18:24:22;;;;;;;;;;;13.10;99.90;;;;;;5071516;28;19916;-68
2021/10/29 18:26:48;;;;;;;;;;;13.10;99.90;;;;;;5060268;28;19921;-67
2021/10/29 18:29:13;;;;;;;;;;;13.10;99.90;;;;;;5030971;28;19924;-67
2021/10/29 18:31:39;;;;;;;;;;;13.20;99.90;;;;;;5044548;28;20476;-67
2021/10/29 18:34:05;;;;;;;;;;;13.20;99.90;;;;;;5054647;28;19925;-67
2021/10/29 18:38:59;;;;;;;;;;;13.30;99.90;;;;;;5051268;28;19921;-77
2021/10/29 18:41:30;;;;;;;;;;;13.40;99.90;;;;;;5036257;28;19952;-77
2021/10/29 18:43:56;;;;;;;;;;;13.50;99.90;;;;;;5035397;28;20600;-77
2021/10/29 18:46:21;;;;;;;;;;;13.60;99.90;;;;;;5033279;28;20011;-77
2021/10/29 18:48:49;;;;;;;;;;;13.70;99.90;;;;;;5036346;28;19952;-77
2021/10/29 18:51:15;;;;;;;;;;;13.70;99.90;;;;;;5032398;28;19921;-77
2021/10/29 18:53:41;;;;;;;;;;;13.70;99.90;;;;;;5035168;28;19925;-78
2021/10/29 18:56:06;;;;;;;;;;;13.80;99.90;;;;;;5034641;28;19921;-78
2021/10/29 18:58:32;;;;;;;;;;;13.70;99.90;;;;;;5050066;28;19924;-78
2021/10/29 19:00:58;;;;;;;;;;;13.80;99.90;;;;;;5027859;28;19959;-79
2021/10/29 19:03:23;;;;;;;;;;;13.70;99.90;;;;;;5029448;28;19939;-78
2021/10/29 19:05:49;;;;;;;;;;;13.70;99.90;;;;;;5037100;28;20551;-78